sensor_id;sensor_type;location;lat;lon;timestamp;P1;durP1;ratioP1;P2;durP2;ratioP2
31848;SDS011;18414;59.352;18.152;2023-04-24T00:00:18;5.00;;;3.50;;
31848;SDS011;18414;59.352;18.152;2023-04-24T00:02:44;4.27;;;3.33;;
31848;SDS011;18414;59.352;18.152;2023-04-24T00:05:12;5.07;;;3.47;;
31848;SDS011;18414;59.352;18.152;2023-04-24T00:07:40;5.03;;;3.40;;
31848;SDS011;18414;59.352;18.152;2023-04-24T00:10:06;4.13;;;3.53;;
31848;SDS011;18414;59.352;18.152;2023-04-24T00:12:32;6.43;;;3.80;;
31848;SDS011;18414;59.352;18.152;2023-04-24T00:14:57;6.17;;;3.60;;
31848;SDS011;18414;59.352;18.152;2023-04-24T00:17:23;4.53;;;3.40;;
31848;SDS011;18414;59.352;18.152;2023-04-24T00:19:48;5.33;;;3.33;;
31848;SDS011;18414;59.352;18.152;2023-04-24T00:22:16;4.30;;;3.30;;
31848;SDS011;18414;59.352;18.152;2023-04-24T00:24:42;4.50;;;3.40;;
31848;SDS011;18414;59.352;18.152;2023-04-24T00:27:07;4.70;;;3.50;;
31848;SDS011;18414;59.352;18.152;2023-04-24T00:29:32;6.50;;;4.03;;
31848;SDS011;18414;59.352;18.152;2023-04-24T00:31:58;5.23;;;3.60;;
31848;SDS011;18414;59.352;18.152;2023-04-24T00:34:23;6.93;;;3.60;;
31848;SDS011;18414;59.352;18.152;2023-04-24T00:36:48;5.93;;;3.83;;
31848;SDS011;18414;59.352;18.152;2023-04-24T00:39:17;5.87;;;3.83;;
31848;SDS011;18414;59.352;18.152;2023-04-24T00:41:43;4.77;;;3.50;;
31848;SDS011;18414;59.352;18.152;2023-04-24T00:44:08;5.20;;;3.90;;
31848;SDS011;18414;59.352;18.152;2023-04-24T00:46:34;5.57;;;4.10;;
31848;SDS011;18414;59.352;18.152;2023-04-24T00:48:59;6.17;;;3.70;;
31848;SDS011;18414;59.352;18.152;2023-04-24T00:51:25;4.87;;;3.67;;
31848;SDS011;18414;59.352;18.152;2023-04-24T00:53:52;4.20;;;3.80;;
31848;SDS011;18414;59.352;18.152;2023-04-24T00:56:17;6.17;;;3.50;;
31848;SDS011;18414;59.352;18.152;2023-04-24T00:58:43;5.30;;;3.67;;
31848;SDS011;18414;59.352;18.152;2023-04-24T01:01:09;7.87;;;3.77;;
31848;SDS011;18414;59.352;18.152;2023-04-24T01:03:36;4.83;;;3.73;;
31848;SDS011;18414;59.352;18.152;2023-04-24T01:06:02;5.77;;;3.80;;
31848;SDS011;18414;59.352;18.152;2023-04-24T01:08:28;9.00;;;4.43;;
31848;SDS011;18414;59.352;18.152;2023-04-24T01:10:54;5.87;;;3.87;;
31848;SDS011;18414;59.352;18.152;2023-04-24T01:13:20;5.67;;;3.90;;
31848;SDS011;18414;59.352;18.152;2023-04-24T01:15:46;5.70;;;3.70;;
31848;SDS011;18414;59.352;18.152;2023-04-24T01:18:12;6.10;;;3.53;;
31848;SDS011;18414;59.352;18.152;2023-04-24T01:20:41;6.53;;;3.57;;
31848;SDS011;18414;59.352;18.152;2023-04-24T01:23:09;4.37;;;3.47;;
31848;SDS011;18414;59.352;18.152;2023-04-24T01:25:35;5.63;;;3.20;;
31848;SDS011;18414;59.352;18.152;2023-04-24T01:28:01;6.50;;;3.43;;
31848;SDS011;18414;59.352;18.152;2023-04-24T01:30:26;6.47;;;3.50;;
31848;SDS011;18414;59.352;18.152;2023-04-24T01:32:52;6.53;;;3.33;;
31848;SDS011;18414;59.352;18.152;2023-04-24T01:35:18;4.63;;;3.53;;
31848;SDS011;18414;59.352;18.152;2023-04-24T01:37:43;6.37;;;3.13;;
31848;SDS011;18414;59.352;18.152;2023-04-24T01:40:09;5.93;;;3.40;;
31848;SDS011;18414;59.352;18.152;2023-04-24T01:42:35;4.80;;;3.00;;
31848;SDS011;18414;59.352;18.152;2023-04-24T01:45:01;5.13;;;2.73;;
31848;SDS011;18414;59.352;18.152;2023-04-24T01:47:28;4.30;;;2.50;;
31848;SDS011;18414;59.352;18.152;2023-04-24T01:49:55;4.37;;;2.07;;
31848;SDS011;18414;59.352;18.152;2023-04-24T01:52:20;4.37;;;2.50;;
31848;SDS011;18414;59.352;18.152;2023-04-24T01:54:46;4.07;;;2.40;;
31848;SDS011;18414;59.352;18.152;2023-04-24T01:57:11;4.17;;;2.30;;
31848;SDS011;18414;59.352;18.152;2023-04-24T01:59:37;3.53;;;2.07;;
31848;SDS011;18414;59.352;18.152;2023-04-24T02:02:02;5.43;;;2.70;;
31848;SDS011;18414;59.352;18.152;2023-04-24T02:04:28;4.77;;;2.50;;
31848;SDS011;18414;59.352;18.152;2023-04-24T02:06:53;5.83;;;2.30;;
31848;SDS011;18414;59.352;18.152;2023-04-24T02:09:19;4.37;;;2.53;;
31848;SDS011;18414;59.352;18.152;2023-04-24T02:11:44;4.03;;;2.70;;
31848;SDS011;18414;59.352;18.152;2023-04-24T02:14:10;4.17;;;2.57;;
31848;SDS011;18414;59.352;18.152;2023-04-24T02:16:35;5.63;;;2.20;;
31848;SDS011;18414;59.352;18.152;2023-04-24T02:19:01;4.63;;;1.90;;
31848;SDS011;18414;59.352;18.152;2023-04-24T02:21:26;6.83;;;2.20;;
31848;SDS011;18414;59.352;18.152;2023-04-24T02:23:53;3.03;;;1.77;;
31848;SDS011;18414;59.352;18.152;2023-04-24T02:26:18;5.50;;;3.10;;
31848;SDS011;18414;59.352;18.152;2023-04-24T02:28:43;4.10;;;2.30;;
31848;SDS011;18414;59.352;18.152;2023-04-24T02:31:09;7.43;;;2.70;;
31848;SDS011;18414;59.352;18.152;2023-04-24T02:33:34;4.33;;;2.10;;
31848;SDS011;18414;59.352;18.152;2023-04-24T02:36:00;4.03;;;2.20;;
31848;SDS011;18414;59.352;18.152;2023-04-24T02:38:26;5.93;;;2.90;;
31848;SDS011;18414;59.352;18.152;2023-04-24T02:40:51;5.97;;;2.30;;
31848;SDS011;18414;59.352;18.152;2023-04-24T02:43:17;4.83;;;2.30;;
31848;SDS011;18414;59.352;18.152;2023-04-24T02:45:42;5.70;;;2.43;;
31848;SDS011;18414;59.352;18.152;2023-04-24T02:48:08;3.37;;;1.97;;
31848;SDS011;18414;59.352;18.152;2023-04-24T02:50:33;5.27;;;2.20;;
31848;SDS011;18414;59.352;18.152;2023-04-24T02:52:58;6.50;;;3.27;;
31848;SDS011;18414;59.352;18.152;2023-04-24T02:55:24;5.53;;;2.03;;
31848;SDS011;18414;59.352;18.152;2023-04-24T02:57:50;4.50;;;2.50;;
31848;SDS011;18414;59.352;18.152;2023-04-24T03:00:15;5.23;;;2.70;;
31848;SDS011;18414;59.352;18.152;2023-04-24T03:02:41;4.73;;;2.40;;
31848;SDS011;18414;59.352;18.152;2023-04-24T03:05:07;6.17;;;3.03;;
31848;SDS011;18414;59.352;18.152;2023-04-24T03:07:32;6.63;;;3.07;;
31848;SDS011;18414;59.352;18.152;2023-04-24T03:09:58;6.40;;;3.20;;
31848;SDS011;18414;59.352;18.152;2023-04-24T03:12:24;6.20;;;3.10;;
31848;SDS011;18414;59.352;18.152;2023-04-24T03:14:49;3.80;;;2.17;;
31848;SDS011;18414;59.352;18.152;2023-04-24T03:17:15;5.30;;;2.73;;
31848;SDS011;18414;59.352;18.152;2023-04-24T03:19:40;3.77;;;2.33;;
31848;SDS011;18414;59.352;18.152;2023-04-24T03:22:05;6.50;;;2.70;;
31848;SDS011;18414;59.352;18.152;2023-04-24T03:24:31;5.07;;;2.87;;
31848;SDS011;18414;59.352;18.152;2023-04-24T03:26:56;4.53;;;2.57;;
31848;SDS011;18414;59.352;18.152;2023-04-24T03:29:22;6.13;;;3.07;;
31848;SDS011;18414;59.352;18.152;2023-04-24T03:31:47;3.90;;;2.57;;
31848;SDS011;18414;59.352;18.152;2023-04-24T03:34:12;3.63;;;2.30;;
31848;SDS011;18414;59.352;18.152;2023-04-24T03:36:38;5.13;;;3.00;;
31848;SDS011;18414;59.352;18.152;2023-04-24T03:39:03;5.60;;;3.47;;
31848;SDS011;18414;59.352;18.152;2023-04-24T03:41:28;5.13;;;2.60;;
31848;SDS011;18414;59.352;18.152;2023-04-24T03:43:55;4.33;;;2.17;;
31848;SDS011;18414;59.352;18.152;2023-04-24T03:46:20;6.83;;;3.17;;
31848;SDS011;18414;59.352;18.152;2023-04-24T03:48:46;5.73;;;3.10;;
31848;SDS011;18414;59.352;18.152;2023-04-24T03:51:11;7.47;;;3.37;;
31848;SDS011;18414;59.352;18.152;2023-04-24T03:53:36;4.73;;;2.90;;
31848;SDS011;18414;59.352;18.152;2023-04-24T03:56:02;5.63;;;3.00;;
31848;SDS011;18414;59.352;18.152;2023-04-24T03:58:27;6.57;;;2.67;;
31848;SDS011;18414;59.352;18.152;2023-04-24T04:00:53;4.00;;;2.43;;
31848;SDS011;18414;59.352;18.152;2023-04-24T04:03:18;4.77;;;2.77;;
31848;SDS011;18414;59.352;18.152;2023-04-24T04:05:44;4.03;;;2.37;;
31848;SDS011;18414;59.352;18.152;2023-04-24T04:08:09;3.67;;;2.07;;
31848;SDS011;18414;59.352;18.152;2023-04-24T04:10:34;5.93;;;2.60;;
31848;SDS011;18414;59.352;18.152;2023-04-24T04:13:00;6.87;;;3.17;;
31848;SDS011;18414;59.352;18.152;2023-04-24T04:15:25;4.90;;;2.40;;
31848;SDS011;18414;59.352;18.152;2023-04-24T04:17:51;4.60;;;2.60;;
31848;SDS011;18414;59.352;18.152;2023-04-24T04:20:16;5.47;;;2.70;;
31848;SDS011;18414;59.352;18.152;2023-04-24T04:22:41;5.87;;;2.67;;
31848;SDS011;18414;59.352;18.152;2023-04-24T04:25:07;6.73;;;2.30;;
31848;SDS011;18414;59.352;18.152;2023-04-24T04:27:33;5.30;;;2.60;;
31848;SDS011;18414;59.352;18.152;2023-04-24T04:29:59;5.63;;;2.63;;
31848;SDS011;18414;59.352;18.152;2023-04-24T04:32:29;5.10;;;2.80;;
31848;SDS011;18414;59.352;18.152;2023-04-24T04:34:58;4.10;;;2.43;;
31848;SDS011;18414;59.352;18.152;2023-04-24T04:37:28;5.60;;;2.77;;
31848;SDS011;18414;59.352;18.152;2023-04-24T04:39:58;5.23;;;2.77;;
31848;SDS011;18414;59.352;18.152;2023-04-24T04:42:24;7.20;;;3.00;;
31848;SDS011;18414;59.352;18.152;2023-04-24T04:44:50;5.97;;;2.77;;
31848;SDS011;18414;59.352;18.152;2023-04-24T04:47:15;6.57;;;2.90;;
31848;SDS011;18414;59.352;18.152;2023-04-24T04:49:42;5.40;;;2.57;;
31848;SDS011;18414;59.352;18.152;2023-04-24T04:52:08;4.67;;;2.57;;
31848;SDS011;18414;59.352;18.152;2023-04-24T04:54:33;3.87;;;2.17;;
31848;SDS011;18414;59.352;18.152;2023-04-24T04:56:58;5.53;;;2.80;;
31848;SDS011;18414;59.352;18.152;2023-04-24T04:59:25;7.43;;;3.20;;
31848;SDS011;18414;59.352;18.152;2023-04-24T05:01:50;7.47;;;2.60;;
31848;SDS011;18414;59.352;18.152;2023-04-24T05:04:16;7.90;;;3.10;;
31848;SDS011;18414;59.352;18.152;2023-04-24T05:06:41;5.67;;;3.00;;
31848;SDS011;18414;59.352;18.152;2023-04-24T05:09:06;5.50;;;3.00;;
31848;SDS011;18414;59.352;18.152;2023-04-24T05:11:32;5.73;;;3.00;;
31848;SDS011;18414;59.352;18.152;2023-04-24T05:13:57;5.73;;;2.87;;
31848;SDS011;18414;59.352;18.152;2023-04-24T05:16:23;5.63;;;3.00;;
31848;SDS011;18414;59.352;18.152;2023-04-24T05:18:48;5.27;;;2.67;;
31848;SDS011;18414;59.352;18.152;2023-04-24T05:21:13;10.13;;;3.00;;
31848;SDS011;18414;59.352;18.152;2023-04-24T05:23:39;4.87;;;2.73;;
31848;SDS011;18414;59.352;18.152;2023-04-24T05:26:04;5.23;;;2.60;;
31848;SDS011;18414;59.352;18.152;2023-04-24T05:28:30;6.07;;;2.80;;
31848;SDS011;18414;59.352;18.152;2023-04-24T05:30:55;5.63;;;2.80;;
31848;SDS011;18414;59.352;18.152;2023-04-24T05:33:21;4.97;;;2.77;;
31848;SDS011;18414;59.352;18.152;2023-04-24T05:35:47;5.37;;;2.70;;
31848;SDS011;18414;59.352;18.152;2023-04-24T05:38:12;5.47;;;2.70;;
31848;SDS011;18414;59.352;18.152;2023-04-24T05:40:38;5.17;;;2.50;;
31848;SDS011;18414;59.352;18.152;2023-04-24T05:43:03;3.50;;;2.03;;
31848;SDS011;18414;59.352;18.152;2023-04-24T05:45:29;6.13;;;2.47;;
31848;SDS011;18414;59.352;18.152;2023-04-24T05:47:54;5.67;;;2.50;;
31848;SDS011;18414;59.352;18.152;2023-04-24T05:50:20;6.13;;;2.27;;
31848;SDS011;18414;59.352;18.152;2023-04-24T05:52:45;3.30;;;1.87;;
31848;SDS011;18414;59.352;18.152;2023-04-24T05:55:11;3.73;;;2.23;;
31848;SDS011;18414;59.352;18.152;2023-04-24T05:57:37;4.80;;;2.20;;
31848;SDS011;18414;59.352;18.152;2023-04-24T06:00:02;3.63;;;2.23;;
31848;SDS011;18414;59.352;18.152;2023-04-24T06:02:29;3.47;;;2.00;;
31848;SDS011;18414;59.352;18.152;2023-04-24T06:04:57;4.17;;;2.33;;
31848;SDS011;18414;59.352;18.152;2023-04-24T06:07:24;4.33;;;2.03;;
31848;SDS011;18414;59.352;18.152;2023-04-24T06:09:51;3.60;;;2.00;;
31848;SDS011;18414;59.352;18.152;2023-04-24T06:12:17;5.37;;;2.10;;
31848;SDS011;18414;59.352;18.152;2023-04-24T06:14:42;3.70;;;2.10;;
31848;SDS011;18414;59.352;18.152;2023-04-24T06:17:07;7.07;;;3.10;;
31848;SDS011;18414;59.352;18.152;2023-04-24T06:19:33;4.07;;;2.40;;
31848;SDS011;18414;59.352;18.152;2023-04-24T06:21:58;4.27;;;2.40;;
31848;SDS011;18414;59.352;18.152;2023-04-24T06:24:27;3.63;;;2.23;;
31848;SDS011;18414;59.352;18.152;2023-04-24T06:26:52;3.07;;;1.93;;
31848;SDS011;18414;59.352;18.152;2023-04-24T06:29:18;5.53;;;2.27;;
31848;SDS011;18414;59.352;18.152;2023-04-24T06:31:43;5.10;;;2.60;;
31848;SDS011;18414;59.352;18.152;2023-04-24T06:34:08;4.13;;;2.47;;
31848;SDS011;18414;59.352;18.152;2023-04-24T06:36:42;5.06;;;3.06;;
31848;SDS011;18414;59.352;18.152;2023-04-24T06:39:08;6.03;;;2.93;;
31848;SDS011;18414;59.352;18.152;2023-04-24T06:41:34;5.13;;;2.80;;
31848;SDS011;18414;59.352;18.152;2023-04-24T06:43:59;3.80;;;2.40;;
31848;SDS011;18414;59.352;18.152;2023-04-24T06:46:24;4.53;;;2.93;;
31848;SDS011;18414;59.352;18.152;2023-04-24T06:48:52;4.40;;;2.60;;
31848;SDS011;18414;59.352;18.152;2023-04-24T06:51:34;5.63;;;2.30;;
31848;SDS011;18414;59.352;18.152;2023-04-24T06:53:59;3.80;;;2.40;;
31848;SDS011;18414;59.352;18.152;2023-04-24T06:56:25;3.23;;;1.90;;
31848;SDS011;18414;59.352;18.152;2023-04-24T06:58:51;3.17;;;1.87;;
31848;SDS011;18414;59.352;18.152;2023-04-24T07:01:16;2.60;;;1.70;;
31848;SDS011;18414;59.352;18.152;2023-04-24T07:03:42;4.10;;;1.80;;
31848;SDS011;18414;59.352;18.152;2023-04-24T07:06:07;2.20;;;1.60;;
31848;SDS011;18414;59.352;18.152;2023-04-24T07:08:33;2.83;;;1.63;;
31848;SDS011;18414;59.352;18.152;2023-04-24T07:10:58;2.17;;;1.40;;
31848;SDS011;18414;59.352;18.152;2023-04-24T07:13:24;4.10;;;2.00;;
31848;SDS011;18414;59.352;18.152;2023-04-24T07:15:50;2.70;;;1.70;;
31848;SDS011;18414;59.352;18.152;2023-04-24T07:18:17;2.03;;;1.47;;
31848;SDS011;18414;59.352;18.152;2023-04-24T07:20:43;2.80;;;1.67;;
31848;SDS011;18414;59.352;18.152;2023-04-24T07:23:09;2.47;;;1.60;;
31848;SDS011;18414;59.352;18.152;2023-04-24T07:25:34;1.97;;;1.50;;
31848;SDS011;18414;59.352;18.152;2023-04-24T07:27:59;4.30;;;1.87;;
31848;SDS011;18414;59.352;18.152;2023-04-24T07:30:25;3.30;;;1.67;;
31848;SDS011;18414;59.352;18.152;2023-04-24T07:32:53;3.58;;;2.13;;
31848;SDS011;18414;59.352;18.152;2023-04-24T07:35:19;2.47;;;1.53;;
31848;SDS011;18414;59.352;18.152;2023-04-24T07:37:45;1.83;;;1.37;;
31848;SDS011;18414;59.352;18.152;2023-04-24T07:40:14;2.53;;;1.80;;
31848;SDS011;18414;59.352;18.152;2023-04-24T07:42:39;2.57;;;1.67;;
31848;SDS011;18414;59.352;18.152;2023-04-24T07:45:05;2.27;;;1.50;;
31848;SDS011;18414;59.352;18.152;2023-04-24T07:47:34;3.17;;;1.60;;
31848;SDS011;18414;59.352;18.152;2023-04-24T07:49:59;2.37;;;1.70;;
31848;SDS011;18414;59.352;18.152;2023-04-24T07:52:26;1.73;;;1.53;;
31848;SDS011;18414;59.352;18.152;2023-04-24T07:54:52;2.10;;;1.50;;
31848;SDS011;18414;59.352;18.152;2023-04-24T07:57:23;3.83;;;1.60;;
31848;SDS011;18414;59.352;18.152;2023-04-24T07:59:49;2.87;;;1.57;;
31848;SDS011;18414;59.352;18.152;2023-04-24T08:02:14;1.83;;;1.40;;
31848;SDS011;18414;59.352;18.152;2023-04-24T08:04:40;2.13;;;1.40;;
31848;SDS011;18414;59.352;18.152;2023-04-24T08:07:05;1.77;;;1.30;;
31848;SDS011;18414;59.352;18.152;2023-04-24T08:09:31;2.13;;;1.50;;
31848;SDS011;18414;59.352;18.152;2023-04-24T08:11:56;2.17;;;1.67;;
31848;SDS011;18414;59.352;18.152;2023-04-24T08:14:21;2.93;;;1.60;;
31848;SDS011;18414;59.352;18.152;2023-04-24T08:16:47;2.77;;;1.80;;
31848;SDS011;18414;59.352;18.152;2023-04-24T08:19:12;2.60;;;1.80;;
31848;SDS011;18414;59.352;18.152;2023-04-24T08:21:37;1.40;;;1.30;;
31848;SDS011;18414;59.352;18.152;2023-04-24T08:24:03;2.63;;;1.43;;
31848;SDS011;18414;59.352;18.152;2023-04-24T08:26:32;2.07;;;1.20;;
31848;SDS011;18414;59.352;18.152;2023-04-24T08:28:57;2.03;;;1.50;;
31848;SDS011;18414;59.352;18.152;2023-04-24T08:31:23;1.50;;;1.40;;
31848;SDS011;18414;59.352;18.152;2023-04-24T08:33:50;1.93;;;1.40;;
31848;SDS011;18414;59.352;18.152;2023-04-24T08:36:15;1.40;;;1.30;;
31848;SDS011;18414;59.352;18.152;2023-04-24T08:38:41;2.40;;;1.77;;
31848;SDS011;18414;59.352;18.152;2023-04-24T08:41:08;2.23;;;1.90;;
31848;SDS011;18414;59.352;18.152;2023-04-24T08:43:34;2.10;;;1.40;;
31848;SDS011;18414;59.352;18.152;2023-04-24T08:46:01;1.43;;;1.30;;
31848;SDS011;18414;59.352;18.152;2023-04-24T08:48:27;2.17;;;1.80;;
31848;SDS011;18414;59.352;18.152;2023-04-24T08:50:52;2.07;;;1.73;;
31848;SDS011;18414;59.352;18.152;2023-04-24T08:53:18;2.40;;;1.60;;
31848;SDS011;18414;59.352;18.152;2023-04-24T08:55:46;2.43;;;1.60;;
31848;SDS011;18414;59.352;18.152;2023-04-24T08:58:12;4.43;;;1.70;;
31848;SDS011;18414;59.352;18.152;2023-04-24T09:00:38;2.47;;;1.50;;
31848;SDS011;18414;59.352;18.152;2023-04-24T09:03:04;1.67;;;1.40;;
31848;SDS011;18414;59.352;18.152;2023-04-24T09:05:31;2.00;;;1.50;;
31848;SDS011;18414;59.352;18.152;2023-04-24T09:07:57;1.70;;;1.53;;
31848;SDS011;18414;59.352;18.152;2023-04-24T09:10:25;2.53;;;1.50;;
31848;SDS011;18414;59.352;18.152;2023-04-24T09:12:51;2.20;;;1.80;;
31848;SDS011;18414;59.352;18.152;2023-04-24T09:15:20;2.87;;;1.73;;
31848;SDS011;18414;59.352;18.152;2023-04-24T09:17:45;1.67;;;1.57;;
31848;SDS011;18414;59.352;18.152;2023-04-24T09:20:11;2.30;;;1.70;;
31848;SDS011;18414;59.352;18.152;2023-04-24T09:22:37;3.08;;;2.10;;
31848;SDS011;18414;59.352;18.152;2023-04-24T09:25:03;1.80;;;1.70;;
31848;SDS011;18414;59.352;18.152;2023-04-24T09:27:31;1.70;;;1.60;;
31848;SDS011;18414;59.352;18.152;2023-04-24T09:29:57;2.70;;;1.57;;
31848;SDS011;18414;59.352;18.152;2023-04-24T09:32:23;2.90;;;2.25;;
31848;SDS011;18414;59.352;18.152;2023-04-24T09:35:13;2.83;;;1.80;;
31848;SDS011;18414;59.352;18.152;2023-04-24T09:37:40;2.83;;;1.90;;
31848;SDS011;18414;59.352;18.152;2023-04-24T09:42:39;2.97;;;1.60;;
31848;SDS011;18414;59.352;18.152;2023-04-24T09:45:09;1.83;;;1.67;;
31848;SDS011;18414;59.352;18.152;2023-04-24T09:47:36;2.27;;;1.87;;
31848;SDS011;18414;59.352;18.152;2023-04-24T09:50:12;2.70;;;1.70;;
31848;SDS011;18414;59.352;18.152;2023-04-24T09:52:39;1.80;;;1.57;;
31848;SDS011;18414;59.352;18.152;2023-04-24T09:55:16;2.57;;;1.70;;
31848;SDS011;18414;59.352;18.152;2023-04-24T09:57:50;1.60;;;1.40;;
31848;SDS011;18414;59.352;18.152;2023-04-24T10:00:23;2.27;;;1.70;;
31848;SDS011;18414;59.352;18.152;2023-04-24T10:03:00;1.83;;;1.53;;
31848;SDS011;18414;59.352;18.152;2023-04-24T10:05:32;2.80;;;1.80;;
31848;SDS011;18414;59.352;18.152;2023-04-24T10:08:05;2.50;;;1.87;;
31848;SDS011;18414;59.352;18.152;2023-04-24T10:10:33;2.93;;;1.70;;
31848;SDS011;18414;59.352;18.152;2023-04-24T10:13:00;2.27;;;1.70;;
31848;SDS011;18414;59.352;18.152;2023-04-24T10:15:26;2.73;;;1.80;;
31848;SDS011;18414;59.352;18.152;2023-04-24T10:17:52;2.50;;;1.90;;
31848;SDS011;18414;59.352;18.152;2023-04-24T10:20:19;3.65;;;2.33;;
31848;SDS011;18414;59.352;18.152;2023-04-24T10:23:05;2.20;;;1.83;;
31848;SDS011;18414;59.352;18.152;2023-04-24T10:25:31;2.90;;;2.07;;
31848;SDS011;18414;59.352;18.152;2023-04-24T10:27:58;1.70;;;1.60;;
31848;SDS011;18414;59.352;18.152;2023-04-24T10:30:25;2.70;;;2.27;;
31848;SDS011;18414;59.352;18.152;2023-04-24T10:32:52;2.43;;;1.70;;
31848;SDS011;18414;59.352;18.152;2023-04-24T10:35:18;2.60;;;1.83;;
31848;SDS011;18414;59.352;18.152;2023-04-24T10:40:31;2.77;;;1.80;;
31848;SDS011;18414;59.352;18.152;2023-04-24T10:42:58;1.33;;;1.23;;
31848;SDS011;18414;59.352;18.152;2023-04-24T10:45:24;2.07;;;1.57;;
31848;SDS011;18414;59.352;18.152;2023-04-24T10:50:27;2.10;;;1.67;;
31848;SDS011;18414;59.352;18.152;2023-04-24T10:52:53;3.17;;;1.60;;
31848;SDS011;18414;59.352;18.152;2023-04-24T10:55:40;2.50;;;1.80;;
31848;SDS011;18414;59.352;18.152;2023-04-24T10:58:13;1.40;;;1.30;;
31848;SDS011;18414;59.352;18.152;2023-04-24T11:00:40;1.37;;;1.27;;
31848;SDS011;18414;59.352;18.152;2023-04-24T11:03:12;2.67;;;1.43;;
31848;SDS011;18414;59.352;18.152;2023-04-24T11:05:49;2.17;;;1.80;;
31848;SDS011;18414;59.352;18.152;2023-04-24T11:08:15;3.50;;;1.80;;
31848;SDS011;18414;59.352;18.152;2023-04-24T11:10:46;2.20;;;1.77;;
31848;SDS011;18414;59.352;18.152;2023-04-24T11:13:22;1.57;;;1.37;;
31848;SDS011;18414;59.352;18.152;2023-04-24T11:18:39;3.07;;;2.00;;
31848;SDS011;18414;59.352;18.152;2023-04-24T11:21:12;2.60;;;1.93;;
31848;SDS011;18414;59.352;18.152;2023-04-24T11:23:38;2.63;;;2.00;;
31848;SDS011;18414;59.352;18.152;2023-04-24T11:26:12;5.60;;;2.03;;
31848;SDS011;18414;59.352;18.152;2023-04-24T11:28:46;2.80;;;1.80;;
31848;SDS011;18414;59.352;18.152;2023-04-24T11:34:05;2.17;;;1.93;;
31848;SDS011;18414;59.352;18.152;2023-04-24T11:36:34;2.50;;;2.10;;
31848;SDS011;18414;59.352;18.152;2023-04-24T11:39:00;3.17;;;2.33;;
31848;SDS011;18414;59.352;18.152;2023-04-24T11:41:26;3.63;;;2.20;;
31848;SDS011;18414;59.352;18.152;2023-04-24T11:43:52;2.63;;;1.90;;
31848;SDS011;18414;59.352;18.152;2023-04-24T11:46:20;4.30;;;1.80;;
31848;SDS011;18414;59.352;18.152;2023-04-24T11:48:55;2.97;;;2.00;;
31848;SDS011;18414;59.352;18.152;2023-04-24T11:51:22;2.87;;;2.00;;
31848;SDS011;18414;59.352;18.152;2023-04-24T11:53:48;2.80;;;1.90;;
31848;SDS011;18414;59.352;18.152;2023-04-24T11:56:16;2.70;;;2.20;;
31848;SDS011;18414;59.352;18.152;2023-04-24T11:58:44;2.57;;;2.23;;
31848;SDS011;18414;59.352;18.152;2023-04-24T12:01:09;4.23;;;2.37;;
31848;SDS011;18414;59.352;18.152;2023-04-24T12:03:34;4.03;;;2.27;;
31848;SDS011;18414;59.352;18.152;2023-04-24T12:06:06;2.67;;;2.20;;
31848;SDS011;18414;59.352;18.152;2023-04-24T12:08:32;4.33;;;2.13;;
31848;SDS011;18414;59.352;18.152;2023-04-24T12:10:59;4.13;;;2.37;;
31848;SDS011;18414;59.352;18.152;2023-04-24T12:13:26;2.27;;;2.07;;
31848;SDS011;18414;59.352;18.152;2023-04-24T12:15:51;3.73;;;2.40;;
31848;SDS011;18414;59.352;18.152;2023-04-24T12:18:16;3.00;;;2.40;;
31848;SDS011;18414;59.352;18.152;2023-04-24T12:20:42;3.57;;;2.40;;
31848;SDS011;18414;59.352;18.152;2023-04-24T12:23:08;2.30;;;2.03;;
31848;SDS011;18414;59.352;18.152;2023-04-24T12:25:34;4.13;;;2.20;;
31848;SDS011;18414;59.352;18.152;2023-04-24T12:30:28;3.47;;;2.50;;
31848;SDS011;18414;59.352;18.152;2023-04-24T12:32:56;4.17;;;2.27;;
31848;SDS011;18414;59.352;18.152;2023-04-24T12:35:23;3.73;;;2.37;;
31848;SDS011;18414;59.352;18.152;2023-04-24T12:37:49;2.83;;;2.53;;
31848;SDS011;18414;59.352;18.152;2023-04-24T12:40:15;4.37;;;2.73;;
31848;SDS011;18414;59.352;18.152;2023-04-24T12:42:42;5.83;;;2.70;;
31848;SDS011;18414;59.352;18.152;2023-04-24T12:45:09;4.10;;;2.40;;
31848;SDS011;18414;59.352;18.152;2023-04-24T12:47:37;3.57;;;2.53;;
31848;SDS011;18414;59.352;18.152;2023-04-24T12:50:02;4.87;;;2.57;;
31848;SDS011;18414;59.352;18.152;2023-04-24T12:52:28;5.50;;;2.83;;
31848;SDS011;18414;59.352;18.152;2023-04-24T12:54:55;4.03;;;2.57;;
31848;SDS011;18414;59.352;18.152;2023-04-24T12:57:22;4.10;;;2.77;;
31848;SDS011;18414;59.352;18.152;2023-04-24T12:59:51;3.63;;;2.60;;
31848;SDS011;18414;59.352;18.152;2023-04-24T13:02:18;2.60;;;2.20;;
31848;SDS011;18414;59.352;18.152;2023-04-24T13:04:44;3.13;;;2.30;;
31848;SDS011;18414;59.352;18.152;2023-04-24T13:07:11;3.60;;;2.70;;
31848;SDS011;18414;59.352;18.152;2023-04-24T13:09:37;5.00;;;2.60;;
31848;SDS011;18414;59.352;18.152;2023-04-24T13:12:02;4.67;;;2.83;;
31848;SDS011;18414;59.352;18.152;2023-04-24T13:14:30;3.73;;;2.50;;
31848;SDS011;18414;59.352;18.152;2023-04-24T13:16:58;4.03;;;2.50;;
31848;SDS011;18414;59.352;18.152;2023-04-24T13:19:24;2.93;;;2.33;;
31848;SDS011;18414;59.352;18.152;2023-04-24T13:21:54;5.10;;;2.73;;
31848;SDS011;18414;59.352;18.152;2023-04-24T13:24:21;4.03;;;2.50;;
31848;SDS011;18414;59.352;18.152;2023-04-24T13:26:49;3.73;;;2.40;;
31848;SDS011;18414;59.352;18.152;2023-04-24T13:29:15;3.27;;;2.50;;
31848;SDS011;18414;59.352;18.152;2023-04-24T13:31:40;4.07;;;2.80;;
31848;SDS011;18414;59.352;18.152;2023-04-24T13:34:05;4.53;;;2.50;;
31848;SDS011;18414;59.352;18.152;2023-04-24T13:36:31;5.07;;;3.07;;
31848;SDS011;18414;59.352;18.152;2023-04-24T13:38:56;5.43;;;2.80;;
31848;SDS011;18414;59.352;18.152;2023-04-24T13:41:23;2.97;;;2.47;;
31848;SDS011;18414;59.352;18.152;2023-04-24T13:43:51;4.87;;;2.70;;
31848;SDS011;18414;59.352;18.152;2023-04-24T13:46:16;4.60;;;3.00;;
31848;SDS011;18414;59.352;18.152;2023-04-24T13:48:42;4.50;;;2.37;;
31848;SDS011;18414;59.352;18.152;2023-04-24T13:51:07;5.43;;;2.93;;
31848;SDS011;18414;59.352;18.152;2023-04-24T13:53:33;4.67;;;3.20;;
31848;SDS011;18414;59.352;18.152;2023-04-24T13:56:01;4.23;;;3.10;;
31848;SDS011;18414;59.352;18.152;2023-04-24T13:58:27;4.80;;;2.33;;
31848;SDS011;18414;59.352;18.152;2023-04-24T14:00:55;4.57;;;2.70;;
31848;SDS011;18414;59.352;18.152;2023-04-24T14:03:20;3.07;;;2.50;;
31848;SDS011;18414;59.352;18.152;2023-04-24T14:05:45;4.60;;;3.30;;
31848;SDS011;18414;59.352;18.152;2023-04-24T14:08:11;4.60;;;2.60;;
31848;SDS011;18414;59.352;18.152;2023-04-24T14:10:36;6.03;;;3.13;;
31848;SDS011;18414;59.352;18.152;2023-04-24T14:13:02;3.50;;;2.77;;
31848;SDS011;18414;59.352;18.152;2023-04-24T14:15:27;4.87;;;2.63;;
31848;SDS011;18414;59.352;18.152;2023-04-24T14:17:53;7.20;;;2.70;;
31848;SDS011;18414;59.352;18.152;2023-04-24T14:20:18;3.27;;;2.37;;
31848;SDS011;18414;59.352;18.152;2023-04-24T14:22:43;8.37;;;2.60;;
31848;SDS011;18414;59.352;18.152;2023-04-24T14:25:09;4.57;;;2.30;;
31848;SDS011;18414;59.352;18.152;2023-04-24T14:27:34;3.70;;;2.43;;
31848;SDS011;18414;59.352;18.152;2023-04-24T14:30:00;6.13;;;2.47;;
31848;SDS011;18414;59.352;18.152;2023-04-24T14:32:25;3.37;;;2.10;;
31848;SDS011;18414;59.352;18.152;2023-04-24T14:34:51;2.80;;;2.00;;
31848;SDS011;18414;59.352;18.152;2023-04-24T14:37:16;3.87;;;2.33;;
31848;SDS011;18414;59.352;18.152;2023-04-24T14:39:42;5.07;;;2.40;;
31848;SDS011;18414;59.352;18.152;2023-04-24T14:42:07;6.03;;;2.50;;
31848;SDS011;18414;59.352;18.152;2023-04-24T14:44:32;4.47;;;2.40;;